Time;durP1;ratioP1;P1;durP2;ratioP2;P2;SDS_P1;SDS_P2;PMS_P1;PMS_P2;Temp;Humidity;BMP_temperature;BMP_pressure;BME280_temperature;BME280_humidity;BME280_pressure;Samples;Min_cycle;Max_cycle;Signal;HPM_P1;HPM_P2
2021/12/28 00:00:14;;;;;;;5.97;1.93;;;9.10;99.90;;;;;;4996031;28;20406;-63
2021/12/28 00:02:42;;;;;;;4.80;1.90;;;9.10;99.90;;;;;;4995714;28;20411;-63
2021/12/28 00:05:09;;;;;;;4.13;1.97;;;9.00;99.90;;;;;;4995651;28;21077;-63
2021/12/28 00:07:36;;;;;;;6.60;1.77;;;9.00;99.90;;;;;;4995943;28;20463;-63
2021/12/28 00:10:02;;;;;;;3.13;1.53;;;9.00;99.90;;;;;;4995032;28;20547;-63
2021/12/28 00:12:31;;;;;;;3.53;2.17;;;9.00;99.90;;;;;;4995563;28;20415;-63
2021/12/28 00:17:59;;;;;;;3.20;1.47;;;9.10;99.90;;;;;;4959604;28;20422;-63
2021/12/28 00:20:30;;;;;;;4.90;1.63;;;9.10;99.90;;;;;;4995730;28;20421;-63
2021/12/28 00:22:57;;;;;;;6.73;1.93;;;9.00;99.90;;;;;;4995315;28;20978;-63
2021/12/28 00:25:23;;;;;;;2.60;1.70;;;9.10;99.90;;;;;;4995429;28;20486;-63
2021/12/28 00:27:49;;;;;;;4.13;1.60;;;9.10;99.90;;;;;;4995351;28;20814;-62
2021/12/28 00:30:14;;;;;;;2.80;1.50;;;9.10;99.90;;;;;;4995443;28;20411;-63
2021/12/28 00:32:40;;;;;;;9.00;2.50;;;9.10;99.90;;;;;;4995231;28;20896;-62
2021/12/28 00:35:06;;;;;;;5.67;2.00;;;9.00;99.90;;;;;;4995420;28;20180;-63
2021/12/28 00:37:32;;;;;;;6.57;1.70;;;9.10;99.90;;;;;;4993906;28;20243;-63
2021/12/28 00:39:58;;;;;;;3.73;1.40;;;9.10;99.90;;;;;;4995056;28;20414;-63
2021/12/28 00:42:23;;;;;;;3.63;1.80;;;9.10;99.90;;;;;;4994343;28;21020;-63
2021/12/28 00:44:49;;;;;;;8.10;2.07;;;9.10;99.90;;;;;;4995125;28;20204;-63
2021/12/28 00:47:16;;;;;;;3.20;1.83;;;9.10;99.90;;;;;;4994912;28;20188;-63
2021/12/28 00:49:42;;;;;;;4.63;1.70;;;9.00;99.90;;;;;;4994905;28;20239;-63
2021/12/28 00:52:07;;;;;;;4.20;1.93;;;9.00;99.90;;;;;;4994829;28;20479;-63
2021/12/28 00:54:33;;;;;;;7.33;2.33;;;9.00;99.90;;;;;;4993411;28;20175;-63
2021/12/28 00:57:01;;;;;;;7.50;2.23;;;9.00;99.90;;;;;;4994737;28;20195;-63
2021/12/28 00:59:27;;;;;;;5.00;1.67;;;8.90;99.90;;;;;;4994708;28;20262;-63
2021/12/28 01:01:53;;;;;;;7.20;2.40;;;8.80;99.90;;;;;;4994676;28;20876;-63
2021/12/28 01:04:19;;;;;;;5.00;1.90;;;8.80;99.90;;;;;;4994982;28;20472;-63
2021/12/28 01:06:45;;;;;;;4.90;2.13;;;8.80;99.90;;;;;;4993245;28;20199;-63
2021/12/28 01:09:10;;;;;;;7.07;2.40;;;8.80;99.90;;;;;;4994425;28;20179;-63
2021/12/28 01:11:36;;;;;;;5.03;1.90;;;8.80;99.90;;;;;;4994395;28;20179;-63
2021/12/28 01:14:02;;;;;;;6.93;2.13;;;8.90;99.90;;;;;;4994636;28;20173;-63
2021/12/28 01:16:28;;;;;;;8.93;2.70;;;9.00;99.90;;;;;;4994452;28;20274;-63
2021/12/28 01:18:53;;;;;;;7.97;2.20;;;9.00;99.90;;;;;;4994634;28;20936;-63
2021/12/28 01:21:19;;;;;;;9.20;2.57;;;8.90;99.90;;;;;;4994348;28;20556;-63
2021/12/28 01:23:45;;;;;;;4.87;1.70;;;9.00;99.90;;;;;;4994236;28;20176;-63
2021/12/28 01:26:11;;;;;;;9.10;2.17;;;8.90;99.90;;;;;;4993974;28;20215;-64
2021/12/28 01:28:36;;;;;;;3.67;2.07;;;8.80;99.90;;;;;;4994472;28;20532;-63
2021/12/28 01:31:02;;;;;;;5.30;2.07;;;8.80;99.90;;;;;;4994328;28;20176;-63
2021/12/28 01:33:28;;;;;;;4.37;1.80;;;8.80;99.90;;;;;;4992879;28;20175;-64
2021/12/28 01:35:54;;;;;;;5.17;2.30;;;8.80;99.90;;;;;;4994296;28;20434;-63
2021/12/28 01:38:20;;;;;;;10.50;2.77;;;8.80;99.90;;;;;;4994481;28;20170;-63
2021/12/28 01:40:45;;;;;;;5.97;2.13;;;8.80;99.90;;;;;;4992704;28;20183;-63
2021/12/28 01:43:17;;;;;;;4.50;2.07;;;8.60;99.90;;;;;;4994211;28;20683;-63
2021/12/28 01:45:51;;;;;;;7.97;2.43;;;8.60;99.90;;;;;;4993801;28;20558;-63
2021/12/28 01:48:26;;;;;;;7.10;2.13;;;8.70;99.90;;;;;;4993919;28;20430;-63
2021/12/28 01:50:56;;;;;;;2.80;1.80;;;8.70;99.90;;;;;;4994420;28;20425;-63
2021/12/28 01:53:23;;;;;;;3.03;1.90;;;8.70;99.90;;;;;;4992765;28;20495;-63
2021/12/28 01:55:53;;;;;;;7.27;2.23;;;8.80;99.90;;;;;;4992511;28;20518;-63
2021/12/28 01:58:19;;;;;;;9.90;2.30;;;8.80;99.90;;;;;;4993805;28;20420;-63
2021/12/28 02:00:47;;;;;;;7.33;1.80;;;8.80;99.90;;;;;;4993855;28;20414;-63
2021/12/28 02:03:15;;;;;;;6.03;1.83;;;8.70;99.90;;;;;;4994006;28;20830;-63
2021/12/28 02:05:41;;;;;;;6.87;2.17;;;8.60;99.90;;;;;;4993669;28;20499;-63
2021/12/28 02:08:08;;;;;;;3.80;1.80;;;8.60;99.90;;;;;;4992745;28;20943;-64
2021/12/28 02:10:35;;;;;;;5.73;2.23;;;8.50;99.90;;;;;;4994296;28;20407;-62
2021/12/28 02:13:03;;;;;;;4.07;2.33;;;8.50;99.90;;;;;;4993718;28;20398;-64
2021/12/28 02:15:28;;;;;;;7.60;2.10;;;8.50;99.90;;;;;;4993634;28;20403;-64
2021/12/28 02:17:54;;;;;;;5.77;2.00;;;8.50;99.90;;;;;;4993627;28;20438;-64
2021/12/28 02:20:20;;;;;;;4.33;1.80;;;8.50;99.90;;;;;;4993710;28;20169;-64
2021/12/28 02:22:47;;;;;;;9.57;2.43;;;8.60;99.90;;;;;;4993519;28;20215;-63
2021/12/28 02:25:15;;;;;;;7.43;2.20;;;8.50;99.90;;;;;;4993865;28;20862;-64
2021/12/28 02:27:41;;;;;;;2.07;1.60;;;8.50;99.90;;;;;;4993554;28;20466;-62
2021/12/28 02:30:10;;;;;;;10.37;2.23;;;8.60;99.90;;;;;;4993593;28;20493;-63
2021/12/28 02:32:38;;;;;;;3.37;1.53;;;8.70;99.90;;;;;;4993672;28;20508;-62
2021/12/28 02:35:11;;;;;;;6.23;2.37;;;8.70;99.90;;;;;;4994060;28;20920;-63
2021/12/28 02:37:37;;;;;;;6.27;2.60;;;8.70;99.90;;;;;;4993830;28;20796;-62
2021/12/28 02:40:06;;;;;;;3.77;1.87;;;8.70;99.90;;;;;;4993527;28;20415;-63
2021/12/28 02:42:32;;;;;;;4.23;2.00;;;8.50;99.90;;;;;;4993635;28;20407;-63
2021/12/28 02:45:13;;;;;;;7.33;3.33;;;8.50;99.90;;;;;;4992502;28;20447;-63
2021/12/28 02:47:42;;;;;;;9.63;2.30;;;8.50;99.90;;;;;;4993539;28;20415;-64
2021/12/28 02:50:13;;;;;;;7.83;2.10;;;8.50;99.90;;;;;;4993461;28;20440;-64
2021/12/28 02:52:39;;;;;;;5.80;2.00;;;8.60;99.90;;;;;;4993745;28;20376;-63
2021/12/28 02:55:07;;;;;;;4.27;1.50;;;8.50;99.90;;;;;;4993719;28;20529;-64
2021/12/28 02:57:33;;;;;;;6.30;2.40;;;8.50;99.90;;;;;;4993615;28;20447;-64
2021/12/28 03:00:00;;;;;;;5.47;2.33;;;8.60;99.90;;;;;;4994514;28;20414;-64
2021/12/28 03:02:26;;;;;;;5.57;2.20;;;8.60;99.90;;;;;;4997612;28;20426;-63
2021/12/28 03:04:51;;;;;;;5.53;2.33;;;8.60;99.90;;;;;;4996977;28;20821;-63
2021/12/28 03:07:17;;;;;;;6.93;2.63;;;8.50;99.90;;;;;;4996074;28;20202;-63
2021/12/28 03:09:43;;;;;;;5.83;2.20;;;8.50;99.90;;;;;;4998021;28;20183;-63
2021/12/28 03:12:09;;;;;;;4.57;2.40;;;8.50;99.90;;;;;;4998495;28;20172;-63
2021/12/28 03:14:36;;;;;;;6.67;2.30;;;8.50;99.90;;;;;;4997238;28;20594;-63
2021/12/28 03:17:03;;;;;;;5.83;2.47;;;8.60;99.90;;;;;;4997015;28;20422;-63
2021/12/28 03:19:29;;;;;;;7.10;2.10;;;8.60;99.90;;;;;;4996623;28;20782;-63
2021/12/28 03:21:57;;;;;;;11.50;3.77;;;8.60;99.90;;;;;;4996936;28;20441;-64
2021/12/28 03:24:23;;;;;;;9.63;3.27;;;8.40;99.90;;;;;;4996887;28;20203;-62
2021/12/28 03:26:48;;;;;;;10.00;3.47;;;8.40;99.90;;;;;;4996575;28;20528;-62
2021/12/28 03:29:14;;;;;;;8.50;2.73;;;8.50;99.90;;;;;;4996547;28;20739;-63
2021/12/28 03:31:40;;;;;;;10.97;2.60;;;8.60;99.90;;;;;;4996805;28;20199;-62
2021/12/28 03:34:05;;;;;;;3.73;2.10;;;8.70;99.90;;;;;;4996788;28;20184;-63
2021/12/28 03:36:31;;;;;;;5.97;2.47;;;8.80;99.90;;;;;;4996286;28;20259;-63
2021/12/28 03:38:58;;;;;;;5.60;2.67;;;8.80;99.90;;;;;;4996571;28;20624;-63
2021/12/28 03:41:25;;;;;;;5.00;2.43;;;8.70;99.90;;;;;;4996582;28;20176;-63
2021/12/28 03:43:53;;;;;;;12.43;1.97;;;8.70;99.90;;;;;;4996040;28;20409;-63
2021/12/28 03:46:21;;;;;;;8.73;3.43;;;8.60;99.90;;;;;;4996268;28;20427;-63
2021/12/28 03:48:47;;;;;;;6.43;2.33;;;8.80;99.90;;;;;;4996252;28;20414;-63
2021/12/28 03:51:13;;;;;;;6.37;2.43;;;8.90;99.90;;;;;;4995973;28;20415;-62
2021/12/28 03:53:39;;;;;;;7.53;2.53;;;8.80;99.90;;;;;;4995978;28;20486;-63
2021/12/28 03:56:07;;;;;;;6.37;2.10;;;9.00;99.90;;;;;;4995872;28;20514;-63
2021/12/28 03:58:33;;;;;;;5.23;3.17;;;8.90;99.90;;;;;;4996369;28;20254;-63
2021/12/28 04:01:01;;;;;;;3.87;2.23;;;8.80;99.90;;;;;;4996140;28;20404;-63
2021/12/28 04:03:27;;;;;;;12.80;2.50;;;8.90;99.90;;;;;;4996009;28;20438;-63
2021/12/28 04:05:53;;;;;;;9.93;2.57;;;9.00;99.90;;;;;;4995642;28;20542;-63
2021/12/28 04:08:22;;;;;;;3.43;1.63;;;9.00;99.90;;;;;;4995649;28;20256;-63
2021/12/28 04:10:53;;;;;;;7.37;2.67;;;8.90;99.90;;;;;;4995612;28;20168;-63
2021/12/28 04:13:20;;;;;;;6.97;2.40;;;8.80;99.90;;;;;;4995646;28;20426;-63
2021/12/28 04:15:46;;;;;;;3.37;1.80;;;8.80;99.90;;;;;;4995509;28;20487;-63
2021/12/28 04:18:13;;;;;;;5.00;2.00;;;8.80;99.90;;;;;;4995613;28;20498;-63
2021/12/28 04:20:39;;;;;;;4.53;2.27;;;8.90;99.90;;;;;;4995459;28;20166;-62
2021/12/28 04:23:04;;;;;;;6.00;2.07;;;8.70;99.90;;;;;;4995442;28;20467;-63
2021/12/28 04:25:31;;;;;;;5.17;2.10;;;8.60;99.90;;;;;;4995212;28;20453;-63
2021/12/28 04:27:57;;;;;;;6.20;2.60;;;8.70;99.90;;;;;;5010758;23;20566;-62
2021/12/28 04:30:23;;;;;;;4.50;2.07;;;8.80;99.90;;;;;;4995467;28;20408;-61
2021/12/28 04:32:49;;;;;;;3.47;1.90;;;8.80;99.90;;;;;;4995359;28;20403;-61
2021/12/28 04:35:16;;;;;;;4.57;2.10;;;8.90;99.90;;;;;;4995448;28;20199;-63
2021/12/28 04:37:42;;;;;;;7.83;2.10;;;8.80;99.90;;;;;;4995500;28;20720;-62
2021/12/28 04:40:10;;;;;;;7.60;2.10;;;8.80;99.90;;;;;;4995070;28;20442;-62
2021/12/28 04:42:37;;;;;;;9.77;2.53;;;8.80;99.90;;;;;;4995269;28;20191;-62
2021/12/28 04:45:03;;;;;;;6.63;2.60;;;8.80;99.90;;;;;;4994895;28;20466;-62
2021/12/28 04:47:29;;;;;;;2.93;1.50;;;8.80;99.90;;;;;;4995143;28;20431;-63
2021/12/28 04:49:54;;;;;;;5.53;2.23;;;8.90;99.90;;;;;;4994963;28;20971;-62
2021/12/28 04:52:20;;;;;;;6.40;2.77;;;8.80;99.90;;;;;;4994861;28;20181;-63
2021/12/28 04:54:46;;;;;;;8.00;2.20;;;8.80;99.90;;;;;;4994855;28;20180;-63
2021/12/28 04:57:12;;;;;;;5.27;2.00;;;8.80;99.90;;;;;;4994673;28;20196;-62
2021/12/28 04:59:37;;;;;;;5.90;2.10;;;8.90;99.90;;;;;;4995161;28;20199;-63
2021/12/28 05:02:03;;;;;;;6.23;2.17;;;8.80;99.90;;;;;;4994742;28;20173;-62
2021/12/28 05:04:29;;;;;;;8.43;2.33;;;8.80;99.90;;;;;;4994476;28;20203;-62
2021/12/28 05:06:55;;;;;;;5.40;1.87;;;8.80;99.90;;;;;;4994848;28;20435;-62
2021/12/28 05:09:21;;;;;;;2.80;1.83;;;8.90;99.90;;;;;;4994453;28;20641;-62
2021/12/28 05:11:48;;;;;;;5.10;2.13;;;8.90;99.90;;;;;;4994795;28;20407;-62
2021/12/28 05:14:17;;;;;;;6.57;2.53;;;8.80;99.90;;;;;;4994529;28;20641;-62
2021/12/28 05:16:42;;;;;;;3.43;2.10;;;8.70;99.90;;;;;;4993452;28;20969;-61
2021/12/28 05:19:08;;;;;;;6.20;2.83;;;8.80;99.90;;;;;;4994617;28;20417;-63
2021/12/28 05:21:37;;;;;;;4.50;2.00;;;8.80;99.90;;;;;;4995045;28;20167;-62
2021/12/28 05:24:03;;;;;;;4.70;2.80;;;8.80;99.90;;;;;;4993893;28;20222;-62
2021/12/28 05:26:29;;;;;;;6.27;2.43;;;8.80;99.90;;;;;;4993911;28;20464;-62
2021/12/28 05:28:55;;;;;;;5.27;2.30;;;8.80;99.90;;;;;;4994814;28;20934;-62
2021/12/28 05:31:21;;;;;;;7.13;2.53;;;8.90;99.90;;;;;;4994478;28;20263;-62
2021/12/28 05:33:47;;;;;;;3.13;2.17;;;8.90;99.90;;;;;;4994483;28;20431;-62
2021/12/28 05:36:13;;;;;;;4.50;3.00;;;8.90;99.90;;;;;;4994039;28;20833;-63
2021/12/28 05:38:39;;;;;;;4.60;2.63;;;8.90;99.90;;;;;;4994116;28;20187;-62
2021/12/28 05:41:06;;;;;;;4.10;2.40;;;9.00;99.90;;;;;;4994401;28;20588;-62
2021/12/28 05:43:31;;;;;;;4.90;2.30;;;9.00;99.90;;;;;;4993954;28;20411;-63
2021/12/28 05:45:57;;;;;;;7.67;2.87;;;9.00;99.90;;;;;;4993884;28;20455;-62
2021/12/28 05:48:23;;;;;;;6.93;2.10;;;9.00;99.90;;;;;;4994183;28;20491;-62
2021/12/28 05:50:48;;;;;;;4.40;2.63;;;9.10;99.90;;;;;;4994188;28;20177;-62
2021/12/28 05:53:14;;;;;;;3.97;1.83;;;9.20;99.90;;;;;;4994222;28;20165;-63
2021/12/28 05:55:40;;;;;;;3.20;2.53;;;9.10;99.90;;;;;;4993934;28;20539;-63
2021/12/28 05:58:05;;;;;;;5.73;2.03;;;9.10;99.90;;;;;;4994371;28;20189;-62
2021/12/28 06:00:32;;;;;;;3.77;2.73;;;9.20;99.90;;;;;;4993804;28;20701;-63
2021/12/28 06:02:58;;;;;;;4.33;2.10;;;9.20;99.90;;;;;;4993885;28;20646;-62
2021/12/28 06:05:24;;;;;;;3.40;1.90;;;9.20;99.90;;;;;;4993846;28;20447;-62
2021/12/28 06:07:50;;;;;;;4.07;2.33;;;9.20;99.90;;;;;;4993824;28;20430;-62
2021/12/28 06:10:16;;;;;;;3.73;2.30;;;9.20;99.90;;;;;;4994161;28;20401;-62
2021/12/28 06:12:46;;;;;;;2.70;1.90;;;9.20;99.90;;;;;;4993762;28;20517;-63
2021/12/28 06:15:12;;;;;;;2.93;1.63;;;9.30;99.90;;;;;;4993860;28;20399;-63
2021/12/28 06:17:38;;;;;;;2.57;1.90;;;9.40;99.90;;;;;;4994436;28;20834;-62
2021/12/28 06:20:06;;;;;;;4.13;2.00;;;9.40;99.90;;;;;;4994616;28;20422;-63
2021/12/28 06:22:32;;;;;;;3.13;2.60;;;9.60;99.90;;;;;;4994697;28;20432;-62
2021/12/28 06:24:57;;;;;;;3.40;2.30;;;9.60;99.90;;;;;;4993906;28;20530;-63
2021/12/28 06:27:24;;;;;;;1.40;1.30;;;9.70;99.90;;;;;;4993695;28;20264;-63
2021/12/28 06:29:50;;;;;;;3.10;1.70;;;9.70;99.90;;;;;;4993932;28;20441;-63
2021/12/28 06:32:16;;;;;;;1.80;1.70;;;9.70;99.90;;;;;;4993640;28;20263;-61
2021/12/28 06:34:41;;;;;;;4.33;2.30;;;9.70;99.90;;;;;;4996210;28;20235;-62
2021/12/28 06:37:07;;;;;;;5.97;2.40;;;9.70;99.90;;;;;;4997335;28;20192;-62
2021/12/28 06:39:33;;;;;;;4.67;1.70;;;9.70;99.90;;;;;;4997611;28;20214;-62
2021/12/28 06:41:59;;;;;;;5.80;2.00;;;9.70;99.90;;;;;;4997541;28;20177;-62
2021/12/28 06:44:24;;;;;;;2.43;1.70;;;9.60;99.90;;;;;;4997434;28;20296;-62
2021/12/28 06:46:50;;;;;;;2.93;1.63;;;9.50;99.90;;;;;;4997384;28;20180;-63
2021/12/28 06:49:17;;;;;;;2.90;2.40;;;9.60;99.90;;;;;;4997661;28;20177;-63
2021/12/28 06:51:43;;;;;;;1.87;1.60;;;9.60;99.90;;;;;;4997420;28;20171;-62
2021/12/28 06:54:09;;;;;;;2.00;1.40;;;9.40;99.90;;;;;;4997131;28;20405;-62
2021/12/28 06:56:34;;;;;;;3.00;1.20;;;9.30;99.90;;;;;;4997097;28;20438;-63
2021/12/28 06:59:00;;;;;;;3.27;1.10;;;9.40;99.90;;;;;;4997651;28;20170;-61
2021/12/28 07:01:26;;;;;;;2.13;1.10;;;9.30;99.90;;;;;;4997189;28;20209;-61
2021/12/28 07:03:52;;;;;;;3.53;1.43;;;9.30;99.90;;;;;;4997003;28;20494;-62
2021/12/28 07:06:18;;;;;;;1.67;1.10;;;9.30;99.90;;;;;;4996699;28;20718;-61
2021/12/28 07:08:44;;;;;;;5.70;1.30;;;9.20;99.90;;;;;;4996802;28;20534;-62
2021/12/28 07:11:10;;;;;;;1.30;1.10;;;9.30;99.90;;;;;;4997233;28;20414;-62
2021/12/28 07:13:36;;;;;;;2.03;1.00;;;9.40;99.90;;;;;;4996914;28;20424;-63
2021/12/28 07:16:02;;;;;;;0.90;0.80;;;9.30;99.90;;;;;;4997167;28;20888;-63
2021/12/28 07:18:28;;;;;;;1.93;0.70;;;9.30;99.90;;;;;;4996998;28;20177;-62
2021/12/28 07:20:54;;;;;;;1.23;0.80;;;9.30;99.90;;;;;;4996658;28;20925;-63
2021/12/28 07:23:20;;;;;;;1.00;0.83;;;9.40;99.90;;;;;;4996573;28;20462;-62
2021/12/28 07:25:46;;;;;;;1.10;0.90;;;9.40;99.90;;;;;;4996566;28;20459;-62
2021/12/28 07:28:14;;;;;;;1.80;0.70;;;9.40;99.90;;;;;;4994950;28;20240;-63
2021/12/28 07:30:39;;;;;;;0.90;0.70;;;9.50;99.90;;;;;;4996458;28;20435;-62
2021/12/28 07:33:05;;;;;;;1.20;0.90;;;9.60;99.90;;;;;;4996489;28;20406;-62
2021/12/28 07:35:31;;;;;;;1.93;0.73;;;9.60;99.90;;;;;;4996249;28;20168;-62
2021/12/28 07:37:56;;;;;;;1.80;0.93;;;9.60;99.90;;;;;;4996152;28;20666;-62
2021/12/28 07:40:22;;;;;;;2.17;0.80;;;9.60;99.90;;;;;;4996757;28;20693;-62
2021/12/28 07:42:48;;;;;;;0.80;0.60;;;9.70;99.90;;;;;;4996408;28;20181;-62
2021/12/28 07:45:15;;;;;;;1.00;0.90;;;9.80;99.90;;;;;;4995657;28;20188;-62
2021/12/28 07:47:42;;;;;;;1.63;0.63;;;9.80;99.90;;;;;;4996282;28;20485;-62
2021/12/28 07:50:10;;;;;;;1.20;0.80;;;9.80;99.90;;;;;;4996079;28;20408;-63
2021/12/28 07:52:36;;;;;;;0.70;0.60;;;9.90;99.90;;;;;;4996206;28;20775;-62
2021/12/28 07:55:04;;;;;;;1.00;0.80;;;9.90;99.90;;;;;;4996041;28;20413;-61
2021/12/28 07:57:30;;;;;;;1.50;0.60;;;10.00;99.90;;;;;;4996016;28;20193;-62
2021/12/28 07:59:56;;;;;;;1.63;0.80;;;10.00;99.90;;;;;;4995967;28;20404;-63
2021/12/28 08:02:22;;;;;;;0.80;0.60;;;10.00;99.90;;;;;;4995900;28;20418;-61
2021/12/28 08:04:48;;;;;;;0.80;0.60;;;10.10;99.90;;;;;;4995801;28;20196;-62
2021/12/28 08:07:13;;;;;;;1.20;1.00;;;10.00;99.90;;;;;;4995774;28;20189;-60
2021/12/28 08:09:39;;;;;;;0.80;0.70;;;10.10;99.90;;;;;;4996344;28;20526;-62
2021/12/28 08:12:05;;;;;;;1.57;0.87;;;10.20;99.90;;;;;;4996044;28;20192;-62
2021/12/28 08:14:31;;;;;;;1.00;0.83;;;10.20;99.90;;;;;;4995700;28;20284;-61
2021/12/28 08:16:56;;;;;;;0.70;0.60;;;10.20;99.90;;;;;;4995660;28;20475;-63
2021/12/28 08:19:22;;;;;;;0.90;0.57;;;10.20;99.90;;;;;;4995693;28;20231;-62
2021/12/28 08:21:47;;;;;;;1.07;0.80;;;10.00;99.90;;;;;;4995728;28;20584;-61
2021/12/28 08:24:13;;;;;;;1.17;0.70;;;10.10;99.90;;;;;;4995471;28;20169;-62
2021/12/28 08:26:39;;;;;;;1.33;0.70;;;10.20;99.90;;;;;;4995561;28;20671;-63
2021/12/28 08:29:05;;;;;;;1.63;0.60;;;10.20;99.90;;;;;;4996074;28;20204;-63
2021/12/28 08:31:30;;;;;;;0.80;0.80;;;10.20;99.90;;;;;;4994096;28;20172;-62
2021/12/28 08:33:56;;;;;;;0.90;0.50;;;10.30;99.90;;;;;;4995318;28;20587;-62
2021/12/28 08:36:22;;;;;;;0.80;0.60;;;10.30;99.90;;;;;;4995237;28;20192;-62
2021/12/28 08:38:47;;;;;;;0.90;0.70;;;10.30;99.90;;;;;;4995771;28;20169;-62
2021/12/28 08:41:13;;;;;;;1.00;0.60;;;10.30;99.90;;;;;;4995512;28;20658;-62
2021/12/28 08:43:39;;;;;;;0.93;0.70;;;10.40;99.90;;;;;;4995235;28;20268;-63
2021/12/28 08:46:05;;;;;;;0.80;0.50;;;10.40;99.90;;;;;;4995068;28;20197;-62
2021/12/28 08:48:30;;;;;;;1.47;0.80;;;10.50;99.90;;;;;;4995019;28;20167;-62
2021/12/28 08:50:56;;;;;;;0.90;0.53;;;10.60;99.90;;;;;;4995529;28;20792;-63
2021/12/28 08:53:22;;;;;;;0.80;0.50;;;10.40;99.90;;;;;;4994874;28;20158;-61
2021/12/28 08:55:47;;;;;;;0.93;0.50;;;10.70;99.90;;;;;;4995072;28;20170;-62
2021/12/28 08:58:15;;;;;;;1.00;0.60;;;10.60;99.90;;;;;;4993877;28;20197;-62
2021/12/28 09:00:41;;;;;;;1.03;0.80;;;10.70;99.90;;;;;;4994835;28;20183;-62
2021/12/28 09:03:07;;;;;;;1.20;0.90;;;10.70;99.90;;;;;;4995169;28;20920;-63
2021/12/28 09:05:34;;;;;;;1.90;1.73;;;10.70;99.90;;;;;;4994924;28;20452;-62
2021/12/28 09:08:01;;;;;;;0.93;0.80;;;10.70;99.90;;;;;;4994712;28;20418;-61
2021/12/28 09:10:27;;;;;;;0.77;0.77;;;10.70;99.90;;;;;;4994659;28;20897;-62
2021/12/28 09:12:56;;;;;;;0.90;0.70;;;10.90;99.90;;;;;;4994443;28;20407;-62
2021/12/28 09:15:22;;;;;;;1.10;0.70;;;10.90;99.90;;;;;;4994841;28;20462;-62
2021/12/28 09:17:47;;;;;;;1.00;0.80;;;11.00;99.90;;;;;;4995069;28;20528;-62
2021/12/28 09:20:17;;;;;;;1.17;0.60;;;11.00;99.90;;;;;;4994429;28;20844;-62
2021/12/28 09:22:43;;;;;;;0.90;0.57;;;11.10;99.90;;;;;;4994617;28;20195;-62
2021/12/28 09:25:09;;;;;;;0.80;0.67;;;11.10;99.90;;;;;;4992993;28;20999;-62
2021/12/28 09:27:35;;;;;;;1.00;0.60;;;11.10;99.90;;;;;;4994288;28;20890;-62
2021/12/28 09:30:02;;;;;;;0.77;0.50;;;11.20;99.90;;;;;;4994165;28;20400;-62
2021/12/28 09:32:28;;;;;;;2.07;0.60;;;11.20;99.90;;;;;;4994295;28;20512;-62
2021/12/28 09:34:55;;;;;;;0.70;0.53;;;11.10;99.90;;;;;;4994238;28;20416;-62
2021/12/28 09:37:21;;;;;;;1.60;0.60;;;11.10;99.90;;;;;;4994098;28;20547;-61
2021/12/28 09:39:48;;;;;;;1.20;0.90;;;11.30;99.90;;;;;;4994162;28;20411;-62
2021/12/28 09:42:14;;;;;;;0.70;0.60;;;11.40;99.90;;;;;;4993996;28;20918;-62
2021/12/28 09:44:40;;;;;;;1.57;0.60;;;11.30;99.90;;;;;;4994234;28;20448;-62
2021/12/28 09:47:08;;;;;;;0.90;0.70;;;11.30;99.90;;;;;;4994769;28;20423;-62
2021/12/28 09:49:34;;;;;;;1.43;0.60;;;11.30;99.90;;;;;;4995536;28;20410;-62
2021/12/28 09:52:03;;;;;;;1.70;1.20;;;11.30;99.90;;;;;;4994784;28;20412;-62
2021/12/28 09:54:31;;;;;;;1.97;1.10;;;11.30;99.90;;;;;;4995014;28;20492;-62
2021/12/28 09:56:59;;;;;;;0.90;0.73;;;11.50;99.90;;;;;;4995081;28;20524;-62
2021/12/28 09:59:29;;;;;;;0.80;0.60;;;11.70;99.90;;;;;;4995712;28;20413;-62
2021/12/28 10:01:55;;;;;;;0.90;0.70;;;11.60;99.90;;;;;;4995291;28;20400;-61
2021/12/28 10:04:21;;;;;;;0.80;0.70;;;11.70;99.90;;;;;;4994712;28;20890;-62
2021/12/28 10:06:47;;;;;;;1.20;0.93;;;11.80;99.90;;;;;;4994297;28;20485;-61
2021/12/28 10:09:19;;;;;;;0.90;0.80;;;12.10;99.90;;;;;;4996996;28;20175;-62
2021/12/28 10:11:52;;;;;;;0.80;0.80;;;12.10;99.90;;;;;;5000450;28;20412;-59
2021/12/28 10:14:21;;;;;;;1.27;0.60;;;12.10;99.90;;;;;;5001432;28;20379;-61
2021/12/28 10:16:59;;;;;;;1.80;0.60;;;12.10;99.90;;;;;;5000462;28;20428;-61
2021/12/28 10:19:32;;;;;;;1.00;0.70;;;12.40;99.90;;;;;;5000466;28;20411;-60
2021/12/28 10:22:17;;;;;;;0.80;0.70;;;12.40;99.90;;;;;;5000602;28;20952;-61
2021/12/28 10:24:43;;;;;;;1.00;0.60;;;12.50;99.90;;;;;;5000842;28;20966;-59
2021/12/28 10:27:14;;;;;;;1.20;0.70;;;12.50;99.90;;;;;;5024174;23;20527;-63
2021/12/28 10:29:40;;;;;;;1.40;0.70;;;12.40;99.90;;;;;;5000559;28;20759;-63
2021/12/28 10:32:39;;;;;;;0.70;0.60;;;12.30;99.90;;;;;;5000106;28;20401;-63
2021/12/28 10:35:12;;;;;;;1.10;0.70;;;12.30;99.90;;;;;;4968270;28;20287;-64
2021/12/28 10:37:40;;;;;;;2.70;0.60;;;12.30;99.90;;;;;;5000193;28;20420;-62
2021/12/28 10:40:12;;;;;;;0.83;0.60;;;12.30;99.90;;;;;;4998630;28;20789;-64
2021/12/28 10:43:00;;;;;;;0.87;0.60;;;12.50;99.90;;;;;;4999881;28;20886;-62
2021/12/28 10:45:36;;;;;;;0.90;0.70;;;12.60;99.90;;;;;;5000163;28;20800;-62
2021/12/28 10:48:06;;;;;;;1.70;0.60;;;13.00;99.90;;;;;;4999817;28;20494;-64
2021/12/28 10:50:37;;;;;;;1.57;0.70;;;13.40;99.90;;;;;;4999685;28;20413;-63
2021/12/28 10:53:20;;;;;;;0.90;0.50;;;13.20;99.90;;;;;;5000227;28;20484;-63
2021/12/28 10:55:49;;;;;;;0.70;0.50;;;13.10;99.90;;;;;;5000079;28;20518;-63
2021/12/28 10:58:27;;;;;;;1.10;0.80;;;13.00;99.90;;;;;;5000063;28;20431;-63
2021/12/28 11:00:55;;;;;;;0.90;0.60;;;13.10;99.90;;;;;;5000136;28;20826;-63
2021/12/28 11:03:26;;;;;;;0.90;0.67;;;13.40;99.90;;;;;;4999896;28;20421;-63
2021/12/28 11:05:54;;;;;;;1.87;0.60;;;14.20;99.90;;;;;;4999966;28;20499;-63
2021/12/28 11:08:21;;;;;;;1.23;0.60;;;13.90;99.90;;;;;;4999813;28;20433;-63
2021/12/28 11:10:51;;;;;;;1.07;0.60;;;14.40;99.90;;;;;;4999591;28;20935;-63
2021/12/28 11:13:23;;;;;;;1.00;0.83;;;16.20;99.90;;;;;;4999829;28;20403;-64
2021/12/28 11:15:49;;;;;;;0.87;0.60;;;17.10;99.90;;;;;;4999647;28;20402;-64
2021/12/28 11:18:33;;;;;;;0.70;0.50;;;17.00;99.90;;;;;;4999587;28;20478;-63
2021/12/28 11:21:08;;;;;;;0.80;0.50;;;16.50;99.90;;;;;;4996852;28;20258;-64
2021/12/28 11:23:34;;;;;;;0.87;0.70;;;17.10;99.90;;;;;;4995333;28;20450;-64
2021/12/28 11:26:16;;;;;;;0.70;0.50;;;18.20;99.90;;;;;;4996679;28;20493;-64
2021/12/28 11:28:51;;;;;;;2.20;0.90;;;17.90;99.90;;;;;;4996308;28;20208;-64
2021/12/28 11:31:20;;;;;;;0.87;0.60;;;17.00;99.90;;;;;;4996542;28;20470;-65
2021/12/28 11:33:53;;;;;;;1.00;0.63;;;16.80;99.90;;;;;;4996592;28;20498;-63
2021/12/28 11:36:21;;;;;;;0.70;0.60;;;17.20;99.90;;;;;;4996426;28;20527;-62
2021/12/28 11:38:47;;;;;;;1.10;0.80;;;17.00;99.90;;;;;;4995034;28;20451;-62
2021/12/28 11:41:14;;;;;;;1.00;0.70;;;16.30;99.90;;;;;;4996810;28;20867;-63
2021/12/28 11:43:42;;;;;;;1.00;0.70;;;15.50;99.90;;;;;;4996125;28;20411;-62
2021/12/28 11:46:08;;;;;;;0.90;0.77;;;14.80;99.90;;;;;;4996181;28;20863;-63
2021/12/28 11:48:34;;;;;;;1.07;0.80;;;14.80;99.90;;;;;;4995983;28;20795;-64
2021/12/28 11:51:00;;;;;;;0.90;0.70;;;14.80;99.90;;;;;;4996330;28;20436;-64
2021/12/28 11:53:27;;;;;;;1.10;0.60;;;14.70;99.90;;;;;;4995871;28;20416;-63
2021/12/28 11:55:56;;;;;;;0.80;0.60;;;14.00;99.90;;;;;;4995763;28;20174;-63
2021/12/28 11:58:56;;;;;;;0.97;0.70;;;14.10;99.90;;;;;;4995833;28;20466;-64
2021/12/28 12:01:50;;;;;;;1.53;0.60;;;14.10;99.90;;;;;;4996276;28;20901;-63
2021/12/28 12:04:34;;;;;;;0.80;0.60;;;13.90;99.90;;;;;;4991845;28;20908;-64
2021/12/28 12:07:14;;;;;;;0.80;0.60;;;13.80;99.90;;;;;;4996373;28;20422;-63
2021/12/28 12:09:49;;;;;;;0.70;0.50;;;13.80;99.90;;;;;;4995848;28;20419;-64
2021/12/28 12:12:33;;;;;;;0.80;0.60;;;13.80;99.90;;;;;;4996001;28;20406;-64
2021/12/28 12:14:58;;;;;;;1.13;0.60;;;13.90;99.90;;;;;;4994421;28;20798;-64
2021/12/28 12:17:39;;;;;;;1.00;0.60;;;13.80;99.90;;;;;;4996367;28;20426;-64
2021/12/28 12:20:16;;;;;;;1.20;0.80;;;13.80;99.90;;;;;;4995698;28;20151;-64
2021/12/28 12:22:48;;;;;;;0.90;0.50;;;13.60;99.90;;;;;;4995811;28;20391;-63
2021/12/28 12:25:17;;;;;;;0.90;0.50;;;13.50;99.90;;;;;;4995663;28;20449;-63
2021/12/28 12:27:53;;;;;;;3.57;0.80;;;13.50;99.90;;;;;;4995587;28;20465;-62
2021/12/28 12:30:22;;;;;;;0.90;0.63;;;13.50;99.90;;;;;;4995444;28;20426;-64
2021/12/28 12:33:05;;;;;;;1.80;1.00;;;13.40;99.90;;;;;;4995113;28;20458;-64
2021/12/28 12:35:47;;;;;;;0.80;0.77;;;13.70;99.90;;;;;;4995306;28;20395;-64
2021/12/28 12:38:13;;;;;;;0.90;0.60;;;13.80;99.90;;;;;;4993820;28;20439;-64
2021/12/28 12:41:07;;;;;;;0.97;0.70;;;13.80;99.90;;;;;;4995512;28;20416;-64
2021/12/28 12:43:36;;;;;;;0.97;0.87;;;13.80;99.90;;;;;;4995540;28;20174;-63
2021/12/28 12:46:10;;;;;;;1.40;0.80;;;13.70;99.90;;;;;;4994906;28;20455;-63
2021/12/28 12:48:36;;;;;;;3.00;0.80;;;13.60;99.90;;;;;;4995280;28;20846;-64
2021/12/28 12:51:22;;;;;;;0.80;0.60;;;13.60;99.90;;;;;;4995192;28;20437;-64
2021/12/28 12:53:58;;;;;;;1.00;0.73;;;13.60;99.90;;;;;;4994908;28;20182;-64
2021/12/28 12:56:28;;;;;;;0.90;0.73;;;13.80;99.90;;;;;;4995361;28;20782;-64
2021/12/28 12:58:56;;;;;;;0.70;0.60;;;13.70;99.90;;;;;;4995002;28;20407;-63